Ocean Outback — 9V8072 — position and weather

sailwx.info

Track history (hours):
 
Tides and Currents Weather Stations Pressure Air Temp Water Temp Dewpoint Dewpoint Depression Visibility Wind Speed Wind Dir Waves Ship Positions

Ocean Outback

Last reported at 2014-Oct-30 13:33 UTC. Time now 2014-Oct-30 13:54 UTC.
Position N 01°13' E 103°50'.

Length 136 m; draft 5.9 m.

Type: Ship. MMSI: 563745000.

Date/timePositionNaut miles runAvg speedWind from/ knotsBaromVisibWave heightAir tempDewpointWater temp
2014-Oct-30 13:33N 01°13' E 103°50'5 4.2
2014-Oct-30 12:25N 01°16' E 103°53'0 0.0
2014-Oct-30 11:31N 01°16' E 103°53'0 0.0
2014-Oct-30 10:31N 01°16' E 103°53'0 0.0
2014-Oct-30 08:31N 01°16' E 103°53'0 0.1
2014-Oct-30 07:25N 01°16' E 103°53'0 0.0
2014-Oct-30 06:25N 01°16' E 103°53'0 0.0
2014-Oct-30 05:31N 01°16' E 103°53'0 0.0
2014-Oct-30 04:28N 01°16' E 103°53'0 0.0
2014-Oct-30 02:31N 01°16' E 103°53'0 0.0
2014-Oct-30 01:22N 01°16' E 103°53'0 0.0
2014-Oct-30 00:16N 01°16' E 103°53'0 0.1
2014-Oct-29 23:31N 01°16' E 103°53'0 0.0
2014-Oct-29 22:31N 01°16' E 103°53'0 0.0
2014-Oct-29 21:31N 01°16' E 103°53'0 0.0
2014-Oct-29 20:31N 01°16' E 103°53'0 0.0
2014-Oct-29 19:31N 01°16' E 103°53'0 0.0
2014-Oct-29 18:31N 01°16' E 103°53'0 0.1
2014-Oct-29 17:31N 01°16' E 103°53'0 0.1
2014-Oct-29 16:33N 01°16' E 103°53'5 5.0
2014-Oct-29 15:33N 01°12' E 103°50'0 0.3
2014-Oct-29 14:32N 01°13' E 103°49'0 0.0
2014-Oct-29 13:33N 01°13' E 103°49'1 0.5
2014-Oct-29 12:33N 01°12' E 103°50'8 7.7
2014-Oct-29 11:33N 01°15' E 103°57'7 3.1
2014-Oct-29 09:22N 01°15' E 104°04'1316.1
2014-Oct-29 08:33N 01°11' E 103°51'  
2014-Oct-22 02:18N 01°13' E 103°40'6 8.5
2014-Oct-22 01:33N 01°16' E 103°46'2 2.1
2014-Oct-22 00:31N 01°15' E 103°48'0 0.0
2014-Oct-21 23:16N 01°15' E 103°48'0 0.0
2014-Oct-21 22:31N 01°15' E 103°48'0 0.0
2014-Oct-21 21:22N 01°15' E 103°48'0 0.0
2014-Oct-21 20:19N 01°15' E 103°48'0 0.0
2014-Oct-21 19:28N 01°15' E 103°48'0 0.0
2014-Oct-21 18:13N 01°15' E 103°48'0 0.0
2014-Oct-21 17:19N 01°15' E 103°48'0 0.0
2014-Oct-21 16:28N 01°15' E 103°48'0 0.0
2014-Oct-21 15:28N 01°15' E 103°48'0 0.0
2014-Oct-21 14:19N 01°15' E 103°48'0 0.0
2014-Oct-21 13:31N 01°15' E 103°48'0 0.0
2014-Oct-21 12:31N 01°15' E 103°48'0 0.0
2014-Oct-21 11:13N 01°15' E 103°48'0 0.0
2014-Oct-21 10:22N 01°15' E 103°48'0 0.0
2014-Oct-21 09:28N 01°15' E 103°48'0 0.0
2014-Oct-21 08:28N 01°15' E 103°48'0 0.0
2014-Oct-21 07:22N 01°15' E 103°48'0 0.0
2014-Oct-21 06:25N 01°15' E 103°48'0 0.0
2014-Oct-21 05:19N 01°15' E 103°48'0 0.0
2014-Oct-21 04:28N 01°15' E 103°48'0 0.0
2014-Oct-21 03:31N 01°15' E 103°48'0 0.0
2014-Oct-21 02:22N 01°15' E 103°48'0 0.0
2014-Oct-21 01:25N 01°15' E 103°48'0 0.0
2014-Oct-21 00:22N 01°15' E 103°48'0 0.1
2014-Oct-20 23:25N 01°15' E 103°48'0 0.1
2014-Oct-20 22:28N 01°15' E 103°48'0 0.0
2014-Oct-20 21:31N 01°15' E 103°48'0 0.0
2014-Oct-20 20:22N 01°15' E 103°48'0 0.1
2014-Oct-20 19:22N 01°15' E 103°48'0 0.1
2014-Oct-20 18:31N 01°15' E 103°48'0 0.0
2014-Oct-20 17:31N 01°15' E 103°48'0 0.1
2014-Oct-20 16:28N 01°15' E 103°48'0 0.1
2014-Oct-20 15:28N 01°15' E 103°48'0 0.1
2014-Oct-20 14:28N 01°15' E 103°48'  
Track history (hours):
 
Tides and Currents Weather Stations Pressure Air Temp Water Temp Dewpoint Dewpoint Depression Visibility Wind Speed Wind Dir Waves Ship Positions

Ocean Outback

Last reported at 2014-Oct-30 13:33 UTC. Time now 2014-Oct-30 13:54 UTC.
Position N 01°13' E 103°50'.

Length 136 m; draft 5.9 m.

Type: Ship. MMSI: 563745000.

Date/timePositionNaut miles runAvg speedWind from/ knotsBaromVisibWave heightAir tempDewpointWater temp
2014-Oct-30 13:33N 01°13' E 103°50'5 4.2
2014-Oct-30 12:25N 01°16' E 103°53'0 0.0
2014-Oct-30 11:31N 01°16' E 103°53'0 0.0
2014-Oct-30 10:31N 01°16' E 103°53'0 0.0
2014-Oct-30 08:31N 01°16' E 103°53'0 0.1
2014-Oct-30 07:25N 01°16' E 103°53'0 0.0
2014-Oct-30 06:25N 01°16' E 103°53'0 0.0
2014-Oct-30 05:31N 01°16' E 103°53'0 0.0
2014-Oct-30 04:28N 01°16' E 103°53'0 0.0
2014-Oct-30 02:31N 01°16' E 103°53'0 0.0
2014-Oct-30 01:22N 01°16' E 103°53'0 0.0
2014-Oct-30 00:16N 01°16' E 103°53'0 0.1
2014-Oct-29 23:31N 01°16' E 103°53'0 0.0
2014-Oct-29 22:31N 01°16' E 103°53'0 0.0
2014-Oct-29 21:31N 01°16' E 103°53'0 0.0
2014-Oct-29 20:31N 01°16' E 103°53'0 0.0
2014-Oct-29 19:31N 01°16' E 103°53'0 0.0
2014-Oct-29 18:31N 01°16' E 103°53'0 0.1
2014-Oct-29 17:31N 01°16' E 103°53'0 0.1
2014-Oct-29 16:33N 01°16' E 103°53'5 5.0
2014-Oct-29 15:33N 01°12' E 103°50'0 0.3
2014-Oct-29 14:32N 01°13' E 103°49'0 0.0
2014-Oct-29 13:33N 01°13' E 103°49'1 0.5
2014-Oct-29 12:33N 01°12' E 103°50'8 7.7
2014-Oct-29 11:33N 01°15' E 103°57'7 3.1
2014-Oct-29 09:22N 01°15' E 104°04'1316.1
2014-Oct-29 08:33N 01°11' E 103°51'  
2014-Oct-22 02:18N 01°13' E 103°40'6 8.5
2014-Oct-22 01:33N 01°16' E 103°46'2 2.1
2014-Oct-22 00:31N 01°15' E 103°48'0 0.0
2014-Oct-21 23:16N 01°15' E 103°48'0 0.0
2014-Oct-21 22:31N 01°15' E 103°48'0 0.0
2014-Oct-21 21:22N 01°15' E 103°48'0 0.0
2014-Oct-21 20:19N 01°15' E 103°48'0 0.0
2014-Oct-21 19:28N 01°15' E 103°48'0 0.0
2014-Oct-21 18:13N 01°15' E 103°48'0 0.0
2014-Oct-21 17:19N 01°15' E 103°48'0 0.0
2014-Oct-21 16:28N 01°15' E 103°48'0 0.0
2014-Oct-21 15:28N 01°15' E 103°48'0 0.0
2014-Oct-21 14:19N 01°15' E 103°48'0 0.0
2014-Oct-21 13:31N 01°15' E 103°48'0 0.0
2014-Oct-21 12:31N 01°15' E 103°48'0 0.0
2014-Oct-21 11:13N 01°15' E 103°48'0 0.0
2014-Oct-21 10:22N 01°15' E 103°48'0 0.0
2014-Oct-21 09:28N 01°15' E 103°48'0 0.0
2014-Oct-21 08:28N 01°15' E 103°48'0 0.0
2014-Oct-21 07:22N 01°15' E 103°48'0 0.0
2014-Oct-21 06:25N 01°15' E 103°48'0 0.0
2014-Oct-21 05:19N 01°15' E 103°48'0 0.0
2014-Oct-21 04:28N 01°15' E 103°48'0 0.0
2014-Oct-21 03:31N 01°15' E 103°48'0 0.0
2014-Oct-21 02:22N 01°15' E 103°48'0 0.0
2014-Oct-21 01:25N 01°15' E 103°48'0 0.0
2014-Oct-21 00:22N 01°15' E 103°48'0 0.1
2014-Oct-20 23:25N 01°15' E 103°48'0 0.1
2014-Oct-20 22:28N 01°15' E 103°48'0 0.0
2014-Oct-20 21:31N 01°15' E 103°48'0 0.0
2014-Oct-20 20:22N 01°15' E 103°48'0 0.1
2014-Oct-20 19:22N 01°15' E 103°48'0 0.1
2014-Oct-20 18:31N 01°15' E 103°48'0 0.0
2014-Oct-20 17:31N 01°15' E 103°48'0 0.1
2014-Oct-20 16:28N 01°15' E 103°48'0 0.1
2014-Oct-20 15:28N 01°15' E 103°48'0 0.1
2014-Oct-20 14:28N 01°15' E 103°48'  

Dump ship's entire track history